Terminal Aerodrome Forecast
Issued by NWS

Home | Current Version | Previous Version | Graphics & Text | Print | Product List | Glossary On
Versions: 1 2 3 4 5 6 7 8 9 10 11 12 13 14 15 16 17 18 19 20 21 22
000
FTUS43 KICT 040520
TAFSLN
TAF
KSLN 040520Z 0406/0506 18017KT P6SM OVC300
     FM040900 19007KT P6SM SCT150 OVC300
     FM041300 19013KT P6SM BKN150
     FM041700 18007KT P6SM SCT080 OVC180=

USA.gov is the U.S. government's official web portal to all federal, state and local government web resources and services.